sensor_id;sensor_type;location;lat;lon;timestamp;pressure;altitude;pressure_sealevel;temperature;humidity
14343;BME280;7255;53.596;9.960;2022-08-21T00:00:24;101445.00;;;14.50;nan
14343;BME280;7255;53.596;9.960;2022-08-21T00:02:54;101443.81;;;14.46;nan
14343;BME280;7255;53.596;9.960;2022-08-21T00:05:21;101447.34;;;14.35;nan
14343;BME280;7255;53.596;9.960;2022-08-21T00:07:48;101442.38;;;14.32;nan
14343;BME280;7255;53.596;9.960;2022-08-21T00:10:15;101442.88;;;14.29;nan
14343;BME280;7255;53.596;9.960;2022-08-21T00:12:42;101436.25;;;14.24;nan
14343;BME280;7255;53.596;9.960;2022-08-21T00:15:10;101436.63;;;14.28;nan
14343;BME280;7255;53.596;9.960;2022-08-21T00:17:38;101436.25;;;14.24;nan
14343;BME280;7255;53.596;9.960;2022-08-21T00:20:06;101437.19;;;14.18;nan
14343;BME280;7255;53.596;9.960;2022-08-21T00:22:34;101430.59;;;14.14;nan
14343;BME280;7255;53.596;9.960;2022-08-21T00:25:00;101433.91;;;14.16;nan
14343;BME280;7255;53.596;9.960;2022-08-21T00:27:27;101432.25;;;14.15;nan
14343;BME280;7255;53.596;9.960;2022-08-21T00:29:53;101426.84;;;14.15;nan
14343;BME280;7255;53.596;9.960;2022-08-21T00:32:21;101423.53;;;14.13;nan
14343;BME280;7255;53.596;9.960;2022-08-21T00:34:49;101424.84;;;14.11;nan
14343;BME280;7255;53.596;9.960;2022-08-21T00:37:15;101416.97;;;14.09;nan
14343;BME280;7255;53.596;9.960;2022-08-21T00:39:42;101424.63;;;14.12;nan
14343;BME280;7255;53.596;9.960;2022-08-21T00:42:08;101424.00;;;14.10;nan
14343;BME280;7255;53.596;9.960;2022-08-21T00:44:35;101420.25;;;14.11;nan
14343;BME280;7255;53.596;9.960;2022-08-21T00:47:01;101419.06;;;14.07;nan
14343;BME280;7255;53.596;9.960;2022-08-21T00:49:28;101422.81;;;14.06;nan
14343;BME280;7255;53.596;9.960;2022-08-21T00:51:57;101412.00;;;14.06;nan
14343;BME280;7255;53.596;9.960;2022-08-21T00:54:28;101411.19;;;14.05;nan
14343;BME280;7255;53.596;9.960;2022-08-21T00:56:58;101415.78;;;14.05;nan
14343;BME280;7255;53.596;9.960;2022-08-21T00:59:27;101411.28;;;13.99;nan
14343;BME280;7255;53.596;9.960;2022-08-21T01:01:55;101411.28;;;13.99;nan
14343;BME280;7255;53.596;9.960;2022-08-21T01:04:22;101420.81;;;14.01;nan
14343;BME280;7255;53.596;9.960;2022-08-21T01:06:49;101416.22;;;14.02;nan
14343;BME280;7255;53.596;9.960;2022-08-21T01:09:18;101419.97;;;14.01;nan
14343;BME280;7255;53.596;9.960;2022-08-21T01:11:45;101414.56;;;14.01;nan
14343;BME280;7255;53.596;9.960;2022-08-21T01:14:11;101414.56;;;14.01;nan
14343;BME280;7255;53.596;9.960;2022-08-21T01:16:39;101412.94;;;14.00;nan
14343;BME280;7255;53.596;9.960;2022-08-21T01:19:06;101416.69;;;13.99;nan
14343;BME280;7255;53.596;9.960;2022-08-21T01:21:35;101410.09;;;13.95;nan
14343;BME280;7255;53.596;9.960;2022-08-21T01:24:02;101413.03;;;13.93;nan
14343;BME280;7255;53.596;9.960;2022-08-21T01:26:32;101425.50;;;13.94;nan
14343;BME280;7255;53.596;9.960;2022-08-21T01:29:07;101420.53;;;13.91;nan
14343;BME280;7255;53.596;9.960;2022-08-21T01:31:35;101422.56;;;13.96;nan
14343;BME280;7255;53.596;9.960;2022-08-21T01:34:02;101413.84;;;13.94;nan
14343;BME280;7255;53.596;9.960;2022-08-21T01:36:29;101420.78;;;13.90;nan
14343;BME280;7255;53.596;9.960;2022-08-21T01:38:57;101427.25;;;13.89;nan
14343;BME280;7255;53.596;9.960;2022-08-21T01:41:23;101421.84;;;13.89;nan
14343;BME280;7255;53.596;9.960;2022-08-21T01:43:50;101419.00;;;13.83;nan
14343;BME280;7255;53.596;9.960;2022-08-21T01:46:16;101422.28;;;13.85;nan
14343;BME280;7255;53.596;9.960;2022-08-21T01:48:43;101419.38;;;13.87;nan
14343;BME280;7255;53.596;9.960;2022-08-21T01:51:10;101414.78;;;13.88;nan
14343;BME280;7255;53.596;9.960;2022-08-21T01:53:37;101407.38;;;13.83;nan
14343;BME280;7255;53.596;9.960;2022-08-21T01:56:11;101415.22;;;13.84;nan
14343;BME280;7255;53.596;9.960;2022-08-21T01:58:39;101409.47;;;13.81;nan
14343;BME280;7255;53.596;9.960;2022-08-21T02:01:06;101405.72;;;13.82;nan
14343;BME280;7255;53.596;9.960;2022-08-21T02:03:32;101409.56;;;13.74;nan
14343;BME280;7255;53.596;9.960;2022-08-21T02:05:59;101405.81;;;13.75;nan
14343;BME280;7255;53.596;9.960;2022-08-21T02:08:26;101410.37;;;13.75;nan
14343;BME280;7255;53.596;9.960;2022-08-21T02:10:53;101409.56;;;13.74;nan
14343;BME280;7255;53.596;9.960;2022-08-21T02:13:21;101402.50;;;13.73;nan
14343;BME280;7255;53.596;9.960;2022-08-21T02:15:47;101407.09;;;13.73;nan
14343;BME280;7255;53.596;9.960;2022-08-21T02:18:13;101407.91;;;13.73;nan
14343;BME280;7255;53.596;9.960;2022-08-21T02:20:45;101398.78;;;13.74;nan
14343;BME280;7255;53.596;9.960;2022-08-21T02:23:13;101402.78;;;13.83;nan
14343;BME280;7255;53.596;9.960;2022-08-21T02:25:40;101410.66;;;13.85;nan
14343;BME280;7255;53.596;9.960;2022-08-21T02:28:08;101404.41;;;13.84;nan
14343;BME280;7255;53.596;9.960;2022-08-21T02:30:39;101401.97;;;13.83;nan
14343;BME280;7255;53.596;9.960;2022-08-21T02:33:06;101408.19;;;13.83;nan
14343;BME280;7255;53.596;9.960;2022-08-21T02:35:33;101410.31;;;13.81;nan
14343;BME280;7255;53.596;9.960;2022-08-21T02:38:03;101404.91;;;13.81;nan
14343;BME280;7255;53.596;9.960;2022-08-21T02:40:32;101406.53;;;13.82;nan
14343;BME280;7255;53.596;9.960;2022-08-21T02:43:00;101401.12;;;13.82;nan
14343;BME280;7255;53.596;9.960;2022-08-21T02:45:27;101401.78;;;13.96;nan
14343;BME280;7255;53.596;9.960;2022-08-21T02:47:57;101412.66;;;13.90;nan
14343;BME280;7255;53.596;9.960;2022-08-21T02:50:27;101405.06;;;13.98;nan
14343;BME280;7255;53.596;9.960;2022-08-21T02:52:54;101408.94;;;13.91;nan
14343;BME280;7255;53.596;9.960;2022-08-21T02:55:22;101397.59;;;13.70;nan
14343;BME280;7255;53.596;9.960;2022-08-21T02:57:49;101400.88;;;13.72;nan
14343;BME280;7255;53.596;9.960;2022-08-21T03:00:16;101393.81;;;13.71;nan
14343;BME280;7255;53.596;9.960;2022-08-21T03:02:42;101394.53;;;13.78;nan
14343;BME280;7255;53.596;9.960;2022-08-21T03:05:13;101393.37;;;13.74;nan
14343;BME280;7255;53.596;9.960;2022-08-21T03:07:40;101384.97;;;13.64;nan
14343;BME280;7255;53.596;9.960;2022-08-21T03:10:08;101395.56;;;13.65;nan
14343;BME280;7255;53.596;9.960;2022-08-21T03:12:34;101385.56;;;13.66;nan
14343;BME280;7255;53.596;9.960;2022-08-21T03:15:02;101387.31;;;13.60;nan
14343;BME280;7255;53.596;9.960;2022-08-21T03:17:29;101387.22;;;13.67;nan
14343;BME280;7255;53.596;9.960;2022-08-21T03:19:56;101388.50;;;13.64;nan
14343;BME280;7255;53.596;9.960;2022-08-21T03:22:24;101377.38;;;13.61;nan
14343;BME280;7255;53.596;9.960;2022-08-21T03:24:51;101383.22;;;13.58;nan
14343;BME280;7255;53.596;9.960;2022-08-21T03:27:17;101386.50;;;13.60;nan
14343;BME280;7255;53.596;9.960;2022-08-21T03:29:44;101386.06;;;13.63;nan
14343;BME280;7255;53.596;9.960;2022-08-21T03:32:10;101386.06;;;13.63;nan
14343;BME280;7255;53.596;9.960;2022-08-21T03:34:37;101377.06;;;13.51;nan
14343;BME280;7255;53.596;9.960;2022-08-21T03:37:04;101381.66;;;13.50;nan
14343;BME280;7255;53.596;9.960;2022-08-21T03:39:33;101379.63;;;13.45;nan
14343;BME280;7255;53.596;9.960;2022-08-21T03:42:00;101380.06;;;13.42;nan
14343;BME280;7255;53.596;9.960;2022-08-21T03:44:26;101385.94;;;13.39;nan
14343;BME280;7255;53.596;9.960;2022-08-21T03:46:55;101387.13;;;13.43;nan
14343;BME280;7255;53.596;9.960;2022-08-21T03:49:22;101383.91;;;13.35;nan
14343;BME280;7255;53.596;9.960;2022-08-21T03:51:49;101388.06;;;13.37;nan
14343;BME280;7255;53.596;9.960;2022-08-21T03:54:16;101385.47;;;13.42;nan
14343;BME280;7255;53.596;9.960;2022-08-21T03:56:44;101382.03;;;13.54;nan
14343;BME280;7255;53.596;9.960;2022-08-21T03:59:10;101385.31;;;13.56;nan
14343;BME280;7255;53.596;9.960;2022-08-21T04:01:37;101384.84;;;13.59;nan
14343;BME280;7255;53.596;9.960;2022-08-21T04:04:04;101379.63;;;13.45;nan
14343;BME280;7255;53.596;9.960;2022-08-21T04:06:31;101381.00;;;13.36;nan
14343;BME280;7255;53.596;9.960;2022-08-21T04:08:58;101380.53;;;13.39;nan
14343;BME280;7255;53.596;9.960;2022-08-21T04:11:24;101383.84;;;13.41;nan
14343;BME280;7255;53.596;9.960;2022-08-21T04:13:52;101380.06;;;13.42;nan
14343;BME280;7255;53.596;9.960;2022-08-21T04:16:18;101390.97;;;13.36;nan
14343;BME280;7255;53.596;9.960;2022-08-21T04:18:44;101381.88;;;13.30;nan
14343;BME280;7255;53.596;9.960;2022-08-21T04:21:11;101388.12;;;13.31;nan
14343;BME280;7255;53.596;9.960;2022-08-21T04:23:37;101389.69;;;13.38;nan
14343;BME280;7255;53.596;9.960;2022-08-21T04:26:04;101385.41;;;13.49;nan
14343;BME280;7255;53.596;9.960;2022-08-21T04:28:31;101389.13;;;13.48;nan
14343;BME280;7255;53.596;9.960;2022-08-21T04:30:59;101392.72;;;13.60;nan
14343;BME280;7255;53.596;9.960;2022-08-21T04:33:25;101397.22;;;13.66;nan
14343;BME280;7255;53.596;9.960;2022-08-21T04:35:51;101392.72;;;13.91;nan
14343;BME280;7255;53.596;9.960;2022-08-21T04:38:18;101395.91;;;13.99;nan
14343;BME280;7255;53.596;9.960;2022-08-21T04:40:45;101390.84;;;14.03;nan
14343;BME280;7255;53.596;9.960;2022-08-21T04:43:12;101395.34;;;14.09;nan
14343;BME280;7255;53.596;9.960;2022-08-21T04:45:40;101406.16;;;14.21;nan
14343;BME280;7255;53.596;9.960;2022-08-21T04:48:10;101396.28;;;14.27;nan
14343;BME280;7255;53.596;9.960;2022-08-21T04:50:40;101401.50;;;14.40;nan
14343;BME280;7255;53.596;9.960;2022-08-21T04:53:10;101409.25;;;14.48;nan
14343;BME280;7255;53.596;9.960;2022-08-21T04:55:38;101407.63;;;14.47;nan
14343;BME280;7255;53.596;9.960;2022-08-21T04:58:07;101409.75;;;14.57;nan
14343;BME280;7255;53.596;9.960;2022-08-21T05:00:34;101412.00;;;14.60;nan
14343;BME280;7255;53.596;9.960;2022-08-21T05:03:01;101421.06;;;14.66;nan
14343;BME280;7255;53.596;9.960;2022-08-21T05:05:30;101424.56;;;14.78;nan
14343;BME280;7255;53.596;9.960;2022-08-21T05:07:59;101419.06;;;14.85;nan
14343;BME280;7255;53.596;9.960;2022-08-21T05:10:27;101416.22;;;15.03;nan
14343;BME280;7255;53.596;9.960;2022-08-21T05:12:53;101421.00;;;15.13;nan
14343;BME280;7255;53.596;9.960;2022-08-21T05:15:20;101424.31;;;15.15;nan
14343;BME280;7255;53.596;9.960;2022-08-21T05:17:47;101421.69;;;15.20;nan
14343;BME280;7255;53.596;9.960;2022-08-21T05:20:13;101429.22;;;15.30;nan
14343;BME280;7255;53.596;9.960;2022-08-21T05:22:41;101434.25;;;15.38;nan
14343;BME280;7255;53.596;9.960;2022-08-21T05:25:09;101425.28;;;15.49;nan
14343;BME280;7255;53.596;9.960;2022-08-21T05:27:35;101424.50;;;15.66;nan
14343;BME280;7255;53.596;9.960;2022-08-21T05:30:03;101428.72;;;15.85;nan
14343;BME280;7255;53.596;9.960;2022-08-21T05:32:30;101427.09;;;16.01;nan
14343;BME280;7255;53.596;9.960;2022-08-21T05:34:56;101432.22;;;16.14;nan
14343;BME280;7255;53.596;9.960;2022-08-21T05:37:22;101433.69;;;16.22;nan
14343;BME280;7255;53.596;9.960;2022-08-21T05:39:50;101433.03;;;16.32;nan
14343;BME280;7255;53.596;9.960;2022-08-21T05:42:16;101429.75;;;16.30;nan
14343;BME280;7255;53.596;9.960;2022-08-21T05:44:42;101427.44;;;16.39;nan
14343;BME280;7255;53.596;9.960;2022-08-21T05:47:10;101434.53;;;16.57;nan
14343;BME280;7255;53.596;9.960;2022-08-21T05:49:37;101435.66;;;16.61;nan
14343;BME280;7255;53.596;9.960;2022-08-21T05:52:03;101431.56;;;16.58;nan
14343;BME280;7255;53.596;9.960;2022-08-21T05:54:30;101429.41;;;16.77;nan
14343;BME280;7255;53.596;9.960;2022-08-21T05:56:57;101427.81;;;16.81;nan
14343;BME280;7255;53.596;9.960;2022-08-21T05:59:24;101438.78;;;16.86;nan
14343;BME280;7255;53.596;9.960;2022-08-21T06:01:50;101437.69;;;17.04;nan
14343;BME280;7255;53.596;9.960;2022-08-21T06:04:17;101437.94;;;17.25;nan
14343;BME280;7255;53.596;9.960;2022-08-21T06:06:44;101442.56;;;17.46;nan
14343;BME280;7255;53.596;9.960;2022-08-21T06:09:11;101439.88;;;17.74;nan
14343;BME280;7255;53.596;9.960;2022-08-21T06:11:37;101441.41;;;17.86;nan
14343;BME280;7255;53.596;9.960;2022-08-21T06:14:05;101431.97;;;17.94;nan
14343;BME280;7255;53.596;9.960;2022-08-21T06:16:32;101437.22;;;18.01;nan
14343;BME280;7255;53.596;9.960;2022-08-21T06:18:59;101441.91;;;18.11;nan
14343;BME280;7255;53.596;9.960;2022-08-21T06:21:25;101443.44;;;18.28;nan
14343;BME280;7255;53.596;9.960;2022-08-21T06:23:51;101445.47;;;18.43;nan
14343;BME280;7255;53.596;9.960;2022-08-21T06:26:17;101437.44;;;18.64;nan
14343;BME280;7255;53.596;9.960;2022-08-21T06:28:45;101444.03;;;18.73;nan
14343;BME280;7255;53.596;9.960;2022-08-21T06:31:16;101444.16;;;18.83;nan
14343;BME280;7255;53.596;9.960;2022-08-21T06:33:43;101439.19;;;18.80;nan
14343;BME280;7255;53.596;9.960;2022-08-21T06:36:10;101446.59;;;18.85;nan
14343;BME280;7255;53.596;9.960;2022-08-21T06:38:36;101437.88;;;18.83;nan
14343;BME280;7255;53.596;9.960;2022-08-21T06:41:03;101439.50;;;18.84;nan
14343;BME280;7255;53.596;9.960;2022-08-21T06:43:30;101437.25;;;18.76;nan
14343;BME280;7255;53.596;9.960;2022-08-21T06:45:57;101443.53;;;18.76;nan
14343;BME280;7255;53.596;9.960;2022-08-21T06:48:24;101445.16;;;18.77;nan
14343;BME280;7255;53.596;9.960;2022-08-21T06:50:51;101441.88;;;18.75;nan
14343;BME280;7255;53.596;9.960;2022-08-21T06:53:19;101444.59;;;18.70;nan
14343;BME280;7255;53.596;9.960;2022-08-21T06:55:46;101439.12;;;18.70;nan
14343;BME280;7255;53.596;9.960;2022-08-21T06:58:13;101428.75;;;18.67;nan
14343;BME280;7255;53.596;9.960;2022-08-21T07:00:42;101435.84;;;18.68;nan
14343;BME280;7255;53.596;9.960;2022-08-21T07:03:16;101429.87;;;18.71;nan
14343;BME280;7255;53.596;9.960;2022-08-21T07:05:44;101432.63;;;18.76;nan
14343;BME280;7255;53.596;9.960;2022-08-21T07:08:10;101425.84;;;18.79;nan
14343;BME280;7255;53.596;9.960;2022-08-21T07:10:36;101424.94;;;18.68;nan
14343;BME280;7255;53.596;9.960;2022-08-21T07:13:03;101417.91;;;18.77;nan
14343;BME280;7255;53.596;9.960;2022-08-21T07:15:29;101420.78;;;18.93;nan
14343;BME280;7255;53.596;9.960;2022-08-21T07:17:55;101417.53;;;19.01;nan
14343;BME280;7255;53.596;9.960;2022-08-21T07:20:22;101415.97;;;19.10;nan
14343;BME280;7255;53.596;9.960;2022-08-21T07:22:50;101412.44;;;19.15;nan
14343;BME280;7255;53.596;9.960;2022-08-21T07:25:16;101409.47;;;19.16;nan
14343;BME280;7255;53.596;9.960;2022-08-21T07:27:42;101397.50;;;19.22;nan
14343;BME280;7255;53.596;9.960;2022-08-21T07:30:09;101401.88;;;19.34;nan
14343;BME280;7255;53.596;9.960;2022-08-21T07:32:36;101402.72;;;19.39;nan
14343;BME280;7255;53.596;9.960;2022-08-21T07:35:03;101402.25;;;19.53;nan
14343;BME280;7255;53.596;9.960;2022-08-21T07:37:29;101400.31;;;19.48;nan
14343;BME280;7255;53.596;9.960;2022-08-21T07:39:57;101401.41;;;19.52;nan
14343;BME280;7255;53.596;9.960;2022-08-21T07:42:23;101405.53;;;19.65;nan
14343;BME280;7255;53.596;9.960;2022-08-21T07:44:50;101397.66;;;19.74;nan
14343;BME280;7255;53.596;9.960;2022-08-21T07:47:16;101402.59;;;19.87;nan
14343;BME280;7255;53.596;9.960;2022-08-21T07:49:42;101400.97;;;19.96;nan
14343;BME280;7255;53.596;9.960;2022-08-21T07:52:09;101390.59;;;20.04;nan
14343;BME280;7255;53.596;9.960;2022-08-21T07:54:35;101394.16;;;20.04;nan
14343;BME280;7255;53.596;9.960;2022-08-21T07:57:03;101397.44;;;20.11;nan
14343;BME280;7255;53.596;9.960;2022-08-21T07:59:30;101398.00;;;20.18;nan
14343;BME280;7255;53.596;9.960;2022-08-21T08:01:56;101397.16;;;20.28;nan
14343;BME280;7255;53.596;9.960;2022-08-21T08:04:23;101402.09;;;20.31;nan
14343;BME280;7255;53.596;9.960;2022-08-21T08:06:49;101387.06;;;20.39;nan
14343;BME280;7255;53.596;9.960;2022-08-21T08:09:15;101399.31;;;20.47;nan
14343;BME280;7255;53.596;9.960;2022-08-21T08:11:42;101404.25;;;20.50;nan
14343;BME280;7255;53.596;9.960;2022-08-21T08:14:10;101396.34;;;20.48;nan
14343;BME280;7255;53.596;9.960;2022-08-21T08:16:37;101393.28;;;20.55;nan
14343;BME280;7255;53.596;9.960;2022-08-21T08:19:03;101392.50;;;20.70;nan
14343;BME280;7255;53.596;9.960;2022-08-21T08:21:29;101386.72;;;20.76;nan
14343;BME280;7255;53.596;9.960;2022-08-21T08:23:58;101396.56;;;20.83;nan
14343;BME280;7255;53.596;9.960;2022-08-21T08:26:24;101387.25;;;20.84;nan
14343;BME280;7255;53.596;9.960;2022-08-21T08:28:50;101389.44;;;20.92;nan
14343;BME280;7255;53.596;9.960;2022-08-21T08:31:18;101392.44;;;20.90;nan
14343;BME280;7255;53.596;9.960;2022-08-21T08:33:44;101394.59;;;20.99;nan
14343;BME280;7255;53.596;9.960;2022-08-21T08:36:15;101394.84;;;21.07;nan
14343;BME280;7255;53.596;9.960;2022-08-21T08:38:42;101394.59;;;20.99;nan
14343;BME280;7255;53.596;9.960;2022-08-21T08:41:12;101398.63;;;21.11;nan
14343;BME280;7255;53.596;9.960;2022-08-21T08:43:40;101394.81;;;21.12;nan
14343;BME280;7255;53.596;9.960;2022-08-21T08:46:11;101392.69;;;20.94;nan
14343;BME280;7255;53.596;9.960;2022-08-21T08:48:45;101385.31;;;21.00;nan
14343;BME280;7255;53.596;9.960;2022-08-21T08:51:15;101387.69;;;21.11;nan
14343;BME280;7255;53.596;9.960;2022-08-21T08:53:50;101380.09;;;21.03;nan
14343;BME280;7255;53.596;9.960;2022-08-21T08:56:20;101381.41;;;21.16;nan
14343;BME280;7255;53.596;9.960;2022-08-21T08:58:49;101384.66;;;21.23;nan
14343;BME280;7255;53.596;9.960;2022-08-21T09:01:18;101388.75;;;21.26;nan
14343;BME280;7255;53.596;9.960;2022-08-21T09:03:47;101385.19;;;21.30;nan
14343;BME280;7255;53.596;9.960;2022-08-21T09:06:25;101376.37;;;21.39;nan
14343;BME280;7255;53.596;9.960;2022-08-21T09:09:01;101385.66;;;21.48;nan
14343;BME280;7255;53.596;9.960;2022-08-21T09:11:32;101373.59;;;21.54;nan
14343;BME280;7255;53.596;9.960;2022-08-21T09:14:12;101386.16;;;21.55;nan
14343;BME280;7255;53.596;9.960;2022-08-21T09:16:47;101376.53;;;21.63;nan
14343;BME280;7255;53.596;9.960;2022-08-21T09:19:29;101372.97;;;21.67;nan
14343;BME280;7255;53.596;9.960;2022-08-21T09:22:08;101382.19;;;21.77;nan
14343;BME280;7255;53.596;9.960;2022-08-21T09:24:42;101372.56;;;21.84;nan
14343;BME280;7255;53.596;9.960;2022-08-21T09:27:13;101368.97;;;21.89;nan
14343;BME280;7255;53.596;9.960;2022-08-21T09:29:42;101363.75;;;21.92;nan
14343;BME280;7255;53.596;9.960;2022-08-21T09:32:13;101364.22;;;22.00;nan
14343;BME280;7255;53.596;9.960;2022-08-21T09:34:55;101363.91;;;22.06;nan
14343;BME280;7255;53.596;9.960;2022-08-21T09:37:22;101362.19;;;22.16;nan
14343;BME280;7255;53.596;9.960;2022-08-21T09:39:48;101355.63;;;22.17;nan
14343;BME280;7255;53.596;9.960;2022-08-21T09:42:21;101365.53;;;22.07;nan
14343;BME280;7255;53.596;9.960;2022-08-21T09:44:48;101353.13;;;22.20;nan
14343;BME280;7255;53.596;9.960;2022-08-21T09:47:18;101356.28;;;22.33;nan
14343;BME280;7255;53.596;9.960;2022-08-21T09:49:47;101363.78;;;22.51;nan
14343;BME280;7255;53.596;9.960;2022-08-21T09:52:17;101363.38;;;22.63;nan
14343;BME280;7255;53.596;9.960;2022-08-21T09:54:45;101369.84;;;22.48;nan
14343;BME280;7255;53.596;9.960;2022-08-21T09:57:14;101355.75;;;22.60;nan
14343;BME280;7255;53.596;9.960;2022-08-21T10:00:08;101349.22;;;22.80;nan
14343;BME280;7255;53.596;9.960;2022-08-21T10:02:36;101368.00;;;22.92;nan
14343;BME280;7255;53.596;9.960;2022-08-21T10:05:08;101368.22;;;22.95;nan
14343;BME280;7255;53.596;9.960;2022-08-21T10:07:41;101370.22;;;22.90;nan
14343;BME280;7255;53.596;9.960;2022-08-21T10:10:14;101364.50;;;22.86;nan
14343;BME280;7255;53.596;9.960;2022-08-21T10:12:46;101361.22;;;22.84;nan
14343;BME280;7255;53.596;9.960;2022-08-21T10:15:20;101359.25;;;22.90;nan
14343;BME280;7255;53.596;9.960;2022-08-21T10:17:59;101354.81;;;23.18;nan
14343;BME280;7255;53.596;9.960;2022-08-21T10:20:35;101358.97;;;23.72;nan
14343;BME280;7255;53.596;9.960;2022-08-21T10:23:13;101366.81;;;23.98;nan
14343;BME280;7255;53.596;9.960;2022-08-21T10:25:50;101348.75;;;24.11;nan
14343;BME280;7255;53.596;9.960;2022-08-21T10:28:24;101361.06;;;24.13;nan
14343;BME280;7255;53.596;9.960;2022-08-21T10:30:58;101357.50;;;24.13;nan
14343;BME280;7255;53.596;9.960;2022-08-21T10:33:33;101362.00;;;24.23;nan
14343;BME280;7255;53.596;9.960;2022-08-21T10:36:09;101365.31;;;24.06;nan
14343;BME280;7255;53.596;9.960;2022-08-21T10:38:52;101359.84;;;23.87;nan
14343;BME280;7255;53.596;9.960;2022-08-21T10:41:27;101356.84;;;23.50;nan
14343;BME280;7255;53.596;9.960;2022-08-21T10:44:01;101356.44;;;23.57;nan
14343;BME280;7255;53.596;9.960;2022-08-21T10:46:38;101358.81;;;23.82;nan
14343;BME280;7255;53.596;9.960;2022-08-21T10:49:17;101361.69;;;23.91;nan
14343;BME280;7255;53.596;9.960;2022-08-21T10:51:55;101363.75;;;23.99;nan
14343;BME280;7255;53.596;9.960;2022-08-21T10:54:35;101354.25;;;24.25;nan
14343;BME280;7255;53.596;9.960;2022-08-21T10:57:09;101364.63;;;24.61;nan
14343;BME280;7255;53.596;9.960;2022-08-21T10:59:41;101365.94;;;24.77;nan
14343;BME280;7255;53.596;9.960;2022-08-21T11:02:15;101361.88;;;24.88;nan
14343;BME280;7255;53.596;9.960;2022-08-21T11:04:52;101362.28;;;24.54;nan
14343;BME280;7255;53.596;9.960;2022-08-21T11:07:26;101364.47;;;24.52;nan
14343;BME280;7255;53.596;9.960;2022-08-21T11:09:56;101370.84;;;24.80;nan
14343;BME280;7255;53.596;9.960;2022-08-21T11:12:28;101371.03;;;24.97;nan
14343;BME280;7255;53.596;9.960;2022-08-21T11:15:04;101362.47;;;24.85;nan
14343;BME280;7255;53.596;9.960;2022-08-21T11:17:34;101366.13;;;25.08;nan
14343;BME280;7255;53.596;9.960;2022-08-21T11:20:06;101366.72;;;25.19;nan
14343;BME280;7255;53.596;9.960;2022-08-21T11:22:39;101360.41;;;25.32;nan
14343;BME280;7255;53.596;9.960;2022-08-21T11:25:11;101376.50;;;25.25;nan
14343;BME280;7255;53.596;9.960;2022-08-21T11:27:43;101357.62;;;24.82;nan
14343;BME280;7255;53.596;9.960;2022-08-21T11:30:11;101374.09;;;24.82;nan
14343;BME280;7255;53.596;9.960;2022-08-21T11:32:51;101371.03;;;24.70;nan
14343;BME280;7255;53.596;9.960;2022-08-21T11:35:27;101370.03;;;24.93;nan
14343;BME280;7255;53.596;9.960;2022-08-21T11:38:08;101369.81;;;24.90;nan
14343;BME280;7255;53.596;9.960;2022-08-21T11:40:49;101376.91;;;24.91;nan
14343;BME280;7255;53.596;9.960;2022-08-21T11:43:22;101377.09;;;25.22;nan
14343;BME280;7255;53.596;9.960;2022-08-21T11:45:54;101365.28;;;25.22;nan
14343;BME280;7255;53.596;9.960;2022-08-21T11:48:36;101369.81;;;25.31;nan
14343;BME280;7255;53.596;9.960;2022-08-21T11:51:10;101367.94;;;25.13;nan
14343;BME280;7255;53.596;9.960;2022-08-21T11:53:43;101360.91;;;25.71;nan
14343;BME280;7255;53.596;9.960;2022-08-21T11:56:19;101359.09;;;26.11;nan
14343;BME280;7255;53.596;9.960;2022-08-21T11:58:51;101353.56;;;26.34;nan
14343;BME280;7255;53.596;9.960;2022-08-21T12:01:22;101362.06;;;26.55;nan
14343;BME280;7255;53.596;9.960;2022-08-21T12:03:54;101362.19;;;26.73;nan
14343;BME280;7255;53.596;9.960;2022-08-21T12:06:29;101363.66;;;26.79;nan
14343;BME280;7255;53.596;9.960;2022-08-21T12:09:04;101363.19;;;26.94;nan
14343;BME280;7255;53.596;9.960;2022-08-21T12:11:31;101352.94;;;26.77;nan
14343;BME280;7255;53.596;9.960;2022-08-21T12:14:00;101358.38;;;26.60;nan
14343;BME280;7255;53.596;9.960;2022-08-21T12:16:39;101349.72;;;26.12;nan
14343;BME280;7255;53.596;9.960;2022-08-21T12:19:08;101352.44;;;25.90;nan
14343;BME280;7255;53.596;9.960;2022-08-21T12:21:49;101340.88;;;25.57;nan
14343;BME280;7255;53.596;9.960;2022-08-21T12:24:20;101353.31;;;25.77;nan
14343;BME280;7255;53.596;9.960;2022-08-21T12:27:00;101350.16;;;26.37;nan
14343;BME280;7255;53.596;9.960;2022-08-21T12:29:29;101360.09;;;26.78;nan
14343;BME280;7255;53.596;9.960;2022-08-21T12:31:58;101359.25;;;27.44;nan
14343;BME280;7255;53.596;9.960;2022-08-21T12:34:33;101350.31;;;27.64;nan
14343;BME280;7255;53.596;9.960;2022-08-21T12:37:04;101355.78;;;27.12;nan
14343;BME280;7255;53.596;9.960;2022-08-21T12:39:36;101355.56;;;26.82;nan
14343;BME280;7255;53.596;9.960;2022-08-21T12:42:06;101360.53;;;26.40;nan
14343;BME280;7255;53.596;9.960;2022-08-21T12:44:42;101354.69;;;25.88;nan
14343;BME280;7255;53.596;9.960;2022-08-21T12:47:16;101358.16;;;25.34;nan
14343;BME280;7255;53.596;9.960;2022-08-21T12:49:51;101353.59;;;25.16;nan
14343;BME280;7255;53.596;9.960;2022-08-21T12:52:21;101358.28;;;25.15;nan
14343;BME280;7255;53.596;9.960;2022-08-21T12:54:49;101349.53;;;25.27;nan
14343;BME280;7255;53.596;9.960;2022-08-21T12:57:21;101347.53;;;25.55;nan
14343;BME280;7255;53.596;9.960;2022-08-21T12:59:52;101348.00;;;25.07;nan
14343;BME280;7255;53.596;9.960;2022-08-21T13:02:21;101352.13;;;24.82;nan
14343;BME280;7255;53.596;9.960;2022-08-21T13:04:49;101346.78;;;25.27;nan
14343;BME280;7255;53.596;9.960;2022-08-21T13:07:21;101338.66;;;25.81;nan
14343;BME280;7255;53.596;9.960;2022-08-21T13:09:53;101329.75;;;26.38;nan
14343;BME280;7255;53.596;9.960;2022-08-21T13:12:21;101337.59;;;27.02;nan
14343;BME280;7255;53.596;9.960;2022-08-21T13:14:50;101339.72;;;27.14;nan
14343;BME280;7255;53.596;9.960;2022-08-21T13:17:19;101347.56;;;27.64;nan
14343;BME280;7255;53.596;9.960;2022-08-21T13:19:56;101338.47;;;27.90;nan
14343;BME280;7255;53.596;9.960;2022-08-21T13:22:24;101337.78;;;27.15;nan
14343;BME280;7255;53.596;9.960;2022-08-21T13:24:52;101340.62;;;26.83;nan
14343;BME280;7255;53.596;9.960;2022-08-21T13:27:23;101342.53;;;26.74;nan
14343;BME280;7255;53.596;9.960;2022-08-21T13:30:02;101333.34;;;26.47;nan
14343;BME280;7255;53.596;9.960;2022-08-21T13:32:30;101331.47;;;25.94;nan